PWSweather.com
Personal Weather Stations
Station Observations
VPOKROGLO
Kal Nad Kanalom, PrimorskaSI

Kal Nad KanalomPrimorskaSI

Lat: 46.072, Lon: 13.734

Elevation: 2526

Station Type: WS-2355

https://okroglovreme.com

Latest ConditionsUpdated 6:15:00 AM GMT+01:01 Thursday, Jun 27, 2019
Currently Today's Max Today's Min Today's Average
Temperature 76.3°F24.6°C 76.3°F24.6°C 73.0°F22.8°C 74.3°F23.5°C
Dew Point 63.6°F17.6°C 63.6°F17.6°C 60.2°F15.7°C 61.2°F16.2°C
Winds Calm Calm 1.9 mph -3.1 kmh - - 0.2 mph 0.3 kmh
Wind Gusts -- 2.7 mph4.3 kmh - -
Humidity 65% 66% 60% 64%
Pressure 30.26 in1024.7 mb 30.31 in1026.4 mb 30.26 in1024.7 mb -
Hour Temp Dew Point Humidity Winds Wind Gusts Pressure Precip Precip Rate Daily Precip Total
06:15 AM 76.3°F24.6°C 63.6°F17.6°C 65% Calm Calm -- 30.26 in1024.7 mb 0.00 in0.0 mm 0.00 in0.0 mm 0.00 in0.0 mm
06:00 AM 74.1°F23.4°C 61.6°F16.4°C 65% Calm Calm -- 30.26 in1024.7 mb 0.00 in0.0 mm 0.00 in0.0 mm 0.00 in0.0 mm
05:45 AM 73.9°F23.3°C 61.4°F16.3°C 65% Calm Calm -- 30.27 in1025.1 mb 0.00 in0.0 mm 0.00 in0.0 mm 0.00 in0.0 mm
05:30 AM 73.6°F23.1°C 61.5°F16.4°C 66% Calm Calm -- 30.26 in1024.7 mb 0.00 in0.0 mm 0.00 in0.0 mm 0.00 in0.0 mm
05:15 AM 73.8°F23.2°C 61.3°F16.3°C 65% Calm Calm -- 30.27 in1025.1 mb 0.00 in0.0 mm 0.00 in0.0 mm 0.00 in0.0 mm
05:00 AM 73.2°F22.9°C 61.2°F16.2°C 66% Calm Calm -- 30.27 in1025.1 mb 0.00 in0.0 mm 0.00 in0.0 mm 0.00 in0.0 mm
04:45 AM 73.2°F22.9°C 61.2°F16.2°C 66% 0.1 mph E0.2 kmh E 1.8 mph2.9 kmh 30.27 in1025.1 mb 0.00 in0.0 mm 0.00 in0.0 mm 0.00 in0.0 mm
04:30 AM 73.0°F22.8°C 61.0°F16.1°C 66% Calm Calm -- 30.27 in1025.1 mb 0.00 in0.0 mm 0.00 in0.0 mm 0.00 in0.0 mm
04:15 AM 73.0°F22.8°C 61.0°F16.1°C 66% Calm Calm -- 30.27 in1025.1 mb 0.00 in0.0 mm 0.00 in0.0 mm 0.00 in0.0 mm
04:00 AM 73.8°F23.2°C 61.3°F16.3°C 65% Calm Calm 0.9 mph1.4 kmh 30.27 in1025.1 mb 0.00 in0.0 mm 0.00 in0.0 mm 0.00 in0.0 mm
03:45 AM 73.6°F23.1°C 61.1°F16.2°C 65% 0.2 mph E0.3 kmh E 1.6 mph2.6 kmh 30.27 in1025.1 mb 0.00 in0.0 mm 0.00 in0.0 mm 0.00 in0.0 mm
03:30 AM 73.6°F23.1°C 61.1°F16.2°C 65% Calm Calm -- 30.27 in1025.1 mb 0.00 in0.0 mm 0.00 in0.0 mm 0.00 in0.0 mm
03:15 AM 73.9°F23.3°C 61.0°F16.1°C 64% 0.1 mph E0.2 kmh E 1.8 mph2.9 kmh 30.27 in1025.1 mb 0.00 in0.0 mm 0.00 in0.0 mm 0.00 in0.0 mm
03:00 AM 74.3°F23.5°C 61.3°F16.3°C 64% Calm Calm -- 30.27 in1025.1 mb 0.00 in0.0 mm 0.00 in0.0 mm 0.00 in0.0 mm
02:45 AM 74.3°F23.5°C 61.3°F16.3°C 64% 0.4 mph E0.6 kmh E 1.8 mph2.9 kmh 30.28 in1025.4 mb 0.00 in0.0 mm 0.00 in0.0 mm 0.00 in0.0 mm
02:30 AM 74.3°F23.5°C 61.3°F16.3°C 64% 0.2 mph E0.3 kmh E 1.3 mph2.1 kmh 30.28 in1025.4 mb 0.00 in0.0 mm 0.00 in0.0 mm 0.00 in0.0 mm
02:15 AM 74.3°F23.5°C 61.3°F16.3°C 64% 0.5 mph E0.8 kmh E 1.8 mph2.9 kmh 30.28 in1025.4 mb 0.00 in0.0 mm 0.00 in0.0 mm 0.00 in0.0 mm
02:00 AM 74.5°F23.6°C 61.1°F16.2°C 63% 0.8 mph E1.3 kmh E 2.0 mph3.2 kmh 30.28 in1025.4 mb 0.00 in0.0 mm 0.00 in0.0 mm 0.00 in0.0 mm
01:45 AM 74.8°F23.8°C 60.9°F16.1°C 62% 1.9 mph E3.1 kmh E 2.7 mph4.3 kmh 30.29 in1025.7 mb 0.00 in0.0 mm 0.00 in0.0 mm 0.00 in0.0 mm
01:30 AM 74.7°F23.7°C 61.2°F16.2°C 63% Calm Calm -- 30.29 in1025.7 mb 0.00 in0.0 mm 0.00 in0.0 mm 0.00 in0.0 mm
01:15 AM 75.0°F23.9°C 61.1°F16.2°C 62% Calm Calm -- 30.30 in1026.1 mb 0.00 in0.0 mm 0.00 in0.0 mm 0.00 in0.0 mm
01:00 AM 74.5°F23.6°C 60.6°F15.9°C 62% Calm Calm -- 30.30 in1026.1 mb 0.00 in0.0 mm 0.00 in0.0 mm 0.00 in0.0 mm
12:45 AM 75.0°F23.9°C 61.1°F16.2°C 62% 1.3 mph E2.1 kmh E 2.5 mph4.0 kmh 30.30 in1026.1 mb 0.00 in0.0 mm 0.00 in0.0 mm 0.00 in0.0 mm
12:30 AM 75.0°F23.9°C 60.2°F15.7°C 60% Calm Calm -- 30.31 in1026.4 mb 0.00 in0.0 mm 0.00 in0.0 mm 0.00 in0.0 mm
12:15 AM 75.7°F24.3°C 60.9°F16.1°C 60% Calm Calm -- 30.31 in1026.4 mb 0.00 in0.0 mm 0.00 in0.0 mm 0.00 in0.0 mm
12:00 AM 76.3°F24.6°C 61.4°F16.3°C 60% 0.1 mph E0.2 kmh E 1.1 mph1.8 kmh 30.31 in1026.4 mb 0.00 in0.0 mm 0.00 in0.0 mm 0.00 in0.0 mm